createdAt,value
2023-12-01T00:01:55.089Z,75.87
2023-12-01T00:04:22.213Z,75.63
2023-12-01T00:06:49.308Z,75.78
2023-12-01T00:09:16.449Z,75.99
2023-12-01T00:11:43.421Z,76.23
2023-12-01T00:14:10.356Z,76.23
2023-12-01T00:16:37.399Z,76.13
2023-12-01T00:19:04.465Z,75.73
2023-12-01T00:21:31.513Z,75.79
2023-12-01T00:23:58.507Z,76.15
2023-12-01T00:26:25.508Z,75.83
2023-12-01T00:28:57.103Z,75.94
2023-12-01T00:31:24.066Z,75.85
2023-12-01T00:33:51.611Z,76.16
2023-12-01T00:36:18.891Z,75.97
2023-12-01T00:38:46.154Z,76.24
2023-12-01T00:41:13.305Z,76.11
2023-12-01T00:43:40.238Z,75.80
2023-12-01T00:46:07.540Z,75.65
2023-12-01T00:48:34.929Z,75.84
2023-12-01T00:51:03.289Z,75.49
2023-12-01T00:53:30.739Z,75.44
2023-12-01T00:55:57.862Z,75.26
2023-12-01T00:58:25.716Z,75.21
2023-12-01T01:00:52.816Z,75.04
2023-12-01T01:03:20.014Z,75.44
2023-12-01T01:05:47.142Z,75.44
2023-12-01T01:08:14.611Z,75.26
2023-12-01T01:10:41.567Z,75.04
2023-12-01T01:13:08.547Z,74.97
2023-12-01T01:15:36.264Z,74.90
2023-12-01T01:18:03.333Z,74.66
2023-12-01T01:20:30.448Z,74.07
2023-12-01T01:22:57.372Z,74.08
2023-12-01T01:25:24.298Z,74.10
2023-12-01T01:27:51.478Z,74.38
2023-12-01T01:30:18.347Z,74.43
2023-12-01T01:32:45.193Z,74.73
2023-12-01T01:35:12.100Z,74.53
2023-12-01T01:37:39.660Z,74.85
2023-12-01T01:40:08.443Z,74.55
2023-12-01T01:42:35.341Z,74.43
2023-12-01T01:45:02.250Z,74.29
2023-12-01T01:47:29.377Z,74.24
2023-12-01T01:49:56.688Z,74.70
2023-12-01T01:52:24.188Z,74.86
2023-12-01T01:54:51.418Z,75.04
2023-12-01T01:57:18.901Z,75.41
2023-12-01T01:59:45.992Z,75.77
2023-12-01T02:02:13.192Z,75.98
2023-12-01T02:04:40.471Z,75.85
2023-12-01T02:07:09.744Z,75.63
2023-12-01T02:09:36.761Z,75.60
2023-12-01T02:12:04.239Z,75.49
2023-12-01T02:14:31.144Z,75.19
2023-12-01T02:16:58.244Z,75.23
2023-12-01T02:19:25.580Z,75.27
2023-12-01T02:21:52.917Z,75.26
2023-12-01T02:24:20.002Z,75.03
2023-12-01T02:26:46.937Z,75.00
2023-12-01T02:29:14.485Z,75.34
2023-12-01T02:31:41.414Z,75.34
2023-12-01T02:34:08.497Z,75.05
2023-12-01T02:36:35.484Z,75.27
2023-12-01T02:39:03.954Z,74.87
2023-12-01T02:41:30.874Z,74.85
2023-12-01T02:43:57.819Z,74.64
2023-12-01T02:46:25.015Z,74.53
2023-12-01T02:48:52.451Z,74.86
2023-12-01T02:51:19.591Z,75.14
2023-12-01T02:53:47.074Z,75.31
2023-12-01T02:58:58.768Z,75.30
2023-12-01T03:01:25.746Z,75.49
2023-12-01T03:03:53.191Z,76.04
2023-12-01T03:06:20.688Z,76.13
2023-12-01T03:08:47.566Z,76.15
2023-12-01T03:11:14.693Z,75.77
2023-12-01T03:13:41.569Z,75.58
2023-12-01T03:16:08.932Z,75.12
2023-12-01T03:18:36.904Z,75.64
2023-12-01T03:21:03.953Z,75.56
2023-12-01T03:23:30.853Z,75.71
2023-12-01T03:25:57.689Z,76.00
2023-12-01T03:28:24.633Z,76.44
2023-12-01T03:30:51.502Z,76.38
2023-12-01T03:33:18.317Z,76.30
2023-12-01T03:35:45.231Z,76.47
2023-12-01T03:38:12.127Z,76.54
2023-12-01T03:40:40.749Z,76.19
2023-12-01T03:43:08.285Z,76.03
2023-12-01T03:45:35.302Z,75.98
2023-12-01T03:48:02.431Z,75.93
2023-12-01T03:50:30.011Z,76.21
2023-12-01T03:52:57.755Z,75.95
2023-12-01T03:55:24.694Z,76.01
2023-12-01T03:57:51.653Z,75.94
2023-12-01T04:00:23.149Z,75.71
2023-12-01T04:02:50.784Z,75.64
2023-12-01T04:05:21.673Z,76.15
2023-12-01T04:07:52.959Z,76.30
2023-12-01T04:10:21.826Z,76.48
2023-12-01T04:12:49.269Z,76.12
2023-12-01T04:15:19.324Z,76.07
2023-12-01T04:17:48.260Z,76.11
2023-12-01T04:20:27.757Z,76.03
2023-12-01T04:22:59.989Z,76.06
2023-12-01T04:25:28.415Z,76.12
2023-12-01T04:27:56.981Z,76.23
2023-12-01T04:30:24.856Z,76.25
2023-12-01T04:32:56.087Z,76.37
2023-12-01T04:35:26.539Z,76.66
2023-12-01T04:37:53.901Z,76.74
2023-12-01T04:40:20.756Z,76.79
2023-12-01T04:42:50.536Z,76.74
2023-12-01T04:45:20.543Z,76.65
2023-12-01T04:47:52.998Z,76.89
2023-12-01T04:50:23.200Z,76.82
2023-12-01T04:52:51.968Z,77.01
2023-12-01T04:55:19.466Z,76.99
2023-12-01T04:57:47.658Z,77.08
2023-12-01T05:00:24.149Z,77.06
2023-12-01T05:02:53.608Z,77.19
2023-12-01T05:05:22.162Z,76.91
2023-12-01T05:07:52.445Z,76.69
2023-12-01T05:10:21.689Z,77.09
2023-12-01T05:12:50.968Z,77.03
2023-12-01T05:15:20.258Z,76.84
2023-12-01T05:17:50.271Z,77.06
2023-12-01T05:20:18.603Z,77.01
2023-12-01T05:22:48.821Z,77.11
2023-12-01T05:25:17.197Z,77.22
2023-12-01T05:27:46.923Z,77.56
2023-12-01T05:30:15.418Z,77.20
2023-12-01T05:32:43.815Z,77.00
2023-12-01T05:35:12.311Z,76.78
2023-12-01T05:37:40.822Z,76.63
2023-12-01T05:40:10.802Z,76.68
2023-12-01T05:42:38.371Z,76.55
2023-12-01T05:45:07.011Z,76.34
2023-12-01T05:47:33.967Z,76.35
2023-12-01T05:50:00.850Z,76.58
2023-12-01T05:52:27.703Z,76.73
2023-12-01T05:54:54.616Z,76.99
2023-12-01T05:57:21.443Z,77.15
2023-12-01T05:59:50.107Z,77.07
2023-12-01T06:02:17.087Z,77.16
2023-12-01T06:04:44.108Z,76.71
2023-12-01T06:07:11.116Z,76.37
2023-12-01T06:09:38.017Z,76.19
2023-12-01T06:12:05.166Z,76.33
2023-12-01T06:14:32.734Z,76.14
2023-12-01T06:16:59.580Z,76.01
2023-12-01T06:19:27.477Z,76.22
2023-12-01T06:21:54.649Z,76.20
2023-12-01T06:24:22.662Z,76.35
2023-12-01T06:26:49.694Z,76.68
2023-12-01T06:29:17.550Z,77.00
2023-12-01T06:31:44.565Z,76.96
2023-12-01T06:34:11.620Z,76.91
2023-12-01T06:36:38.466Z,77.06
2023-12-01T06:39:11.710Z,76.98
2023-12-01T06:41:39.120Z,76.78
2023-12-01T06:44:06.952Z,76.95
2023-12-01T06:46:34.258Z,76.63
2023-12-01T06:49:01.324Z,76.93
2023-12-01T06:51:28.227Z,77.00
2023-12-01T06:53:57.401Z,77.29
2023-12-01T06:56:24.859Z,77.43
2023-12-01T06:58:51.897Z,77.51
2023-12-01T07:01:20.155Z,77.56
2023-12-01T07:03:47.319Z,77.44
2023-12-01T07:06:15.200Z,77.21
2023-12-01T07:08:42.137Z,77.13
2023-12-01T07:11:09.113Z,76.87
2023-12-01T07:13:36.317Z,76.83
2023-12-01T07:16:11.913Z,76.65
2023-12-01T07:18:39.810Z,76.35
2023-12-01T07:21:07.794Z,76.43
2023-12-01T07:23:36.112Z,76.80
2023-12-01T07:26:03.219Z,76.42
2023-12-01T07:28:30.838Z,76.14
2023-12-01T07:30:57.903Z,76.18
2023-12-01T07:33:24.817Z,75.81
2023-12-01T07:35:51.688Z,75.75
2023-12-01T07:38:18.906Z,75.27
2023-12-01T07:40:47.347Z,75.24
2023-12-01T07:43:14.338Z,74.91
2023-12-01T07:45:41.204Z,74.84
2023-12-01T07:48:11.182Z,74.90
2023-12-01T07:50:38.192Z,74.81
2023-12-01T07:53:06.343Z,74.73
2023-12-01T07:55:34.521Z,74.22
2023-12-01T07:58:01.455Z,73.95
2023-12-01T08:00:28.528Z,73.15
2023-12-01T08:02:56.631Z,72.37
2023-12-01T08:05:25.192Z,71.70
2023-12-01T08:07:55.480Z,71.41
2023-12-01T08:10:25.224Z,70.89
2023-12-01T08:12:59.024Z,70.75
2023-12-01T08:15:29.000Z,70.30
2023-12-01T08:17:58.034Z,70.06
2023-12-01T08:20:25.468Z,69.51
2023-12-01T08:22:52.474Z,68.76
2023-12-01T08:25:22.644Z,68.39
2023-12-01T08:27:50.093Z,68.06
2023-12-01T08:30:19.386Z,68.07
2023-12-01T08:32:49.675Z,67.64
2023-12-01T08:35:17.352Z,67.51
2023-12-01T08:37:44.840Z,67.26
2023-12-01T08:40:14.075Z,66.40
2023-12-01T08:42:42.365Z,65.87
2023-12-01T08:45:10.660Z,65.60
2023-12-01T08:47:38.887Z,64.88
2023-12-01T08:50:09.221Z,64.16
2023-12-01T08:52:38.541Z,63.59
2023-12-01T08:55:07.161Z,62.77
2023-12-01T08:57:34.860Z,62.00
2023-12-01T09:00:01.912Z,61.85
2023-12-01T09:02:28.969Z,61.41
2023-12-01T09:04:56.132Z,61.19
2023-12-01T09:07:23.089Z,60.65
2023-12-01T09:09:56.179Z,60.23
2023-12-01T09:12:24.082Z,60.34
2023-12-01T09:14:51.386Z,60.30
2023-12-01T09:17:18.467Z,59.88
2023-12-01T09:19:45.490Z,59.63
2023-12-01T09:22:12.502Z,59.21
2023-12-01T09:24:39.381Z,60.11
2023-12-01T09:27:06.463Z,60.25
2023-12-01T09:29:33.416Z,59.64
2023-12-01T09:32:00.360Z,59.60
2023-12-01T09:34:27.252Z,59.51
2023-12-01T09:36:54.124Z,58.94
2023-12-01T09:39:21.150Z,57.73
2023-12-01T09:41:48.224Z,57.55
2023-12-01T09:44:15.242Z,57.15
2023-12-01T09:46:44.463Z,56.62
2023-12-01T09:49:11.751Z,56.69
2023-12-01T09:51:38.824Z,56.57
2023-12-01T09:54:06.262Z,56.21
2023-12-01T09:56:33.534Z,56.02
2023-12-01T09:59:01.034Z,56.14
2023-12-01T10:01:29.208Z,56.29
2023-12-01T10:03:56.933Z,56.79
2023-12-01T10:06:25.231Z,56.85
2023-12-01T10:08:52.843Z,56.88
2023-12-01T10:11:22.210Z,57.33
2023-12-01T10:13:52.567Z,57.16
2023-12-01T10:16:21.146Z,57.55
2023-12-01T10:19:06.193Z,57.20
2023-12-01T10:21:51.430Z,56.55
2023-12-01T10:24:23.654Z,56.53
2023-12-01T10:26:53.420Z,56.55
2023-12-01T10:29:32.064Z,56.49
2023-12-01T10:32:04.060Z,56.77
2023-12-01T10:34:31.652Z,56.38
2023-12-01T10:36:59.150Z,56.67
2023-12-01T10:39:30.626Z,56.95
2023-12-01T10:42:02.608Z,57.07
2023-12-01T10:44:32.757Z,56.77
2023-12-01T10:47:00.624Z,57.11
2023-12-01T10:49:28.604Z,56.78
2023-12-01T10:51:57.828Z,56.70
2023-12-01T10:54:27.671Z,56.88
2023-12-01T10:56:57.443Z,56.97
2023-12-01T10:59:27.760Z,56.29
2023-12-01T11:01:56.568Z,56.25
2023-12-01T11:04:28.824Z,55.76
2023-12-01T11:07:00.258Z,55.32
2023-12-01T11:09:41.425Z,54.94
2023-12-01T11:12:18.800Z,54.60
2023-12-01T11:14:47.158Z,54.77
2023-12-01T11:17:19.362Z,54.57
2023-12-01T11:19:46.903Z,54.79
2023-12-01T11:22:33.817Z,55.01
2023-12-01T11:25:02.673Z,54.56
2023-12-01T11:27:32.891Z,54.79
2023-12-01T11:30:09.161Z,54.89
2023-12-01T11:32:45.870Z,55.46
2023-12-01T11:35:14.718Z,55.92
2023-12-01T11:37:57.496Z,56.42
2023-12-01T11:40:25.651Z,56.18
2023-12-01T11:42:57.283Z,56.76
2023-12-01T11:45:45.900Z,56.34
2023-12-01T11:48:13.559Z,56.77
2023-12-01T11:50:42.002Z,56.28
2023-12-01T11:53:14.784Z,56.90
2023-12-01T11:55:42.745Z,56.96
2023-12-01T11:58:09.579Z,57.06
2023-12-01T12:00:36.665Z,57.64
2023-12-01T12:03:19.877Z,57.76
2023-12-01T12:05:46.944Z,58.07
2023-12-01T12:08:13.857Z,58.32
2023-12-01T12:10:40.757Z,58.34
2023-12-01T12:13:13.169Z,58.80
2023-12-01T12:15:40.129Z,59.23
2023-12-01T12:18:07.391Z,59.79
2023-12-01T12:20:34.464Z,59.87
2023-12-01T12:23:02.087Z,60.17
2023-12-01T12:25:38.479Z,60.57
2023-12-01T12:28:13.630Z,60.99
2023-12-01T12:30:40.865Z,61.09
2023-12-01T12:33:08.133Z,61.53
2023-12-01T12:35:35.218Z,61.59
2023-12-01T12:38:03.586Z,61.63
2023-12-01T12:40:36.059Z,61.74
2023-12-01T12:43:07.269Z,61.96
2023-12-01T12:45:34.422Z,62.03
2023-12-01T12:48:11.535Z,62.45
2023-12-01T12:50:42.368Z,62.52
2023-12-01T12:53:09.441Z,62.66
2023-12-01T12:55:36.452Z,63.17
2023-12-01T12:58:03.440Z,63.54
2023-12-01T13:00:30.899Z,63.93
2023-12-01T13:02:57.799Z,64.32
2023-12-01T13:05:25.418Z,64.72
2023-12-01T13:07:52.946Z,64.73
2023-12-01T13:10:19.977Z,65.40
2023-12-01T13:12:46.816Z,65.54
2023-12-01T13:15:13.717Z,65.82
2023-12-01T13:17:40.545Z,66.23
2023-12-01T13:20:08.972Z,66.67
2023-12-01T13:22:35.897Z,66.60
2023-12-01T13:25:04.400Z,66.73
2023-12-01T13:27:33.253Z,66.93
2023-12-01T13:30:00.456Z,67.26
2023-12-01T13:32:27.525Z,67.68
2023-12-01T13:34:54.552Z,68.06
2023-12-01T13:37:22.541Z,68.29
2023-12-01T13:39:50.006Z,68.75
2023-12-01T13:42:17.175Z,68.94
2023-12-01T13:44:44.141Z,69.03
2023-12-01T13:47:11.020Z,69.58
2023-12-01T13:49:37.928Z,70.06
2023-12-01T13:52:05.168Z,70.06
2023-12-01T13:54:32.064Z,70.42
2023-12-01T13:56:59.021Z,70.63
2023-12-01T13:59:25.939Z,71.04
2023-12-01T14:01:52.950Z,71.11
2023-12-01T14:04:20.352Z,71.32
2023-12-01T14:06:48.233Z,71.35
2023-12-01T14:09:15.721Z,71.49
2023-12-01T14:11:42.702Z,71.57
2023-12-01T14:14:10.388Z,71.65
2023-12-01T14:16:37.351Z,71.69
2023-12-01T14:19:04.339Z,71.73
2023-12-01T14:21:31.293Z,71.88
2023-12-01T14:23:59.057Z,71.91
2023-12-01T14:26:26.114Z,71.87
2023-12-01T14:28:53.297Z,71.81
2023-12-01T14:31:20.221Z,71.85
2023-12-01T14:33:47.938Z,71.88
2023-12-01T14:36:15.912Z,71.98
2023-12-01T14:38:47.403Z,72.16
2023-12-01T14:41:18.367Z,72.20
2023-12-01T14:43:45.227Z,72.28
2023-12-01T14:46:13.013Z,72.41
2023-12-01T14:48:39.987Z,72.58
2023-12-01T14:51:07.293Z,72.73
2023-12-01T14:53:34.179Z,72.87
2023-12-01T14:56:01.668Z,72.79
2023-12-01T14:58:29.101Z,72.61
2023-12-01T15:00:55.925Z,72.75
2023-12-01T15:03:22.812Z,72.79
2023-12-01T15:05:49.894Z,72.41
2023-12-01T15:08:16.764Z,72.47
2023-12-01T15:10:43.593Z,72.65
2023-12-01T15:13:10.457Z,72.80
2023-12-01T15:15:37.357Z,73.04
2023-12-01T15:18:04.287Z,73.09
2023-12-01T15:20:31.293Z,73.18
2023-12-01T15:22:58.184Z,73.19
2023-12-01T15:25:25.919Z,73.08
2023-12-01T15:27:52.928Z,73.09
2023-12-01T15:30:19.970Z,73.10
2023-12-01T15:32:47.261Z,73.11
2023-12-01T15:35:15.139Z,73.24
2023-12-01T15:37:43.414Z,73.47
2023-12-01T15:40:14.574Z,73.41
2023-12-01T15:42:44.848Z,73.53
2023-12-01T15:45:12.550Z,73.56
2023-12-01T15:47:39.485Z,73.48
2023-12-01T15:50:07.018Z,73.56
2023-12-01T15:52:33.928Z,73.52
2023-12-01T15:55:00.785Z,73.71
2023-12-01T15:57:27.609Z,73.68
2023-12-01T15:59:54.509Z,73.79
2023-12-01T16:02:21.588Z,73.87
2023-12-01T16:04:49.313Z,73.54
2023-12-01T16:07:16.199Z,73.51
2023-12-01T16:09:43.748Z,73.46
2023-12-01T16:12:11.010Z,73.26
2023-12-01T16:14:37.878Z,73.42
2023-12-01T16:17:11.122Z,73.47
2023-12-01T16:19:40.466Z,73.76
2023-12-01T16:22:07.552Z,73.82
2023-12-01T16:24:38.881Z,73.87
2023-12-01T16:27:06.457Z,73.88
2023-12-01T16:29:33.409Z,74.03
2023-12-01T16:32:00.323Z,73.95
2023-12-01T16:34:27.174Z,73.53
2023-12-01T16:36:54.692Z,73.64
2023-12-01T16:39:22.790Z,73.81
2023-12-01T16:41:49.965Z,74.03
2023-12-01T16:44:17.931Z,74.21
2023-12-01T16:46:44.803Z,74.34
2023-12-01T16:49:11.896Z,74.22
2023-12-01T16:51:39.087Z,74.16
2023-12-01T16:54:06.105Z,74.10
2023-12-01T16:56:37.203Z,74.14
2023-12-01T16:59:04.111Z,74.33
2023-12-01T17:01:30.946Z,74.23
2023-12-01T17:03:58.964Z,74.30
2023-12-01T17:06:25.893Z,74.69
2023-12-01T17:08:52.903Z,74.99
2023-12-01T17:11:20.785Z,75.04
2023-12-01T17:13:49.631Z,74.95
2023-12-01T17:16:16.526Z,75.28
2023-12-01T17:18:43.659Z,75.19
2023-12-01T17:21:15.487Z,75.19
2023-12-01T17:23:42.944Z,75.48
2023-12-01T17:26:12.631Z,75.72
2023-12-01T17:28:40.674Z,75.95
2023-12-01T17:31:08.171Z,76.15
2023-12-01T17:33:35.094Z,75.78
2023-12-01T17:36:02.135Z,75.84
2023-12-01T17:38:29.198Z,75.83
2023-12-01T17:40:56.078Z,75.70
2023-12-01T17:43:23.472Z,75.80
2023-12-01T17:45:50.429Z,76.12
2023-12-01T17:48:17.425Z,76.39
2023-12-01T17:50:44.450Z,76.32
2023-12-01T17:53:11.339Z,76.44
2023-12-01T17:55:38.213Z,76.13
2023-12-01T17:58:05.316Z,76.12
2023-12-01T18:00:32.932Z,76.16
2023-12-01T18:02:59.914Z,76.31
2023-12-01T18:05:26.860Z,76.09
2023-12-01T18:07:53.919Z,76.34
2023-12-01T18:10:20.912Z,76.13
2023-12-01T18:12:47.812Z,76.36
2023-12-01T18:15:15.240Z,76.24
2023-12-01T18:17:44.211Z,76.40
2023-12-01T18:20:11.740Z,76.39
2023-12-01T18:22:38.600Z,76.54
2023-12-01T18:25:06.257Z,76.67
2023-12-01T18:27:33.256Z,76.53
2023-12-01T18:30:00.141Z,76.41
2023-12-01T18:32:27.227Z,76.52
2023-12-01T18:34:54.208Z,76.82
2023-12-01T18:37:21.086Z,76.62
2023-12-01T18:39:48.013Z,76.55
2023-12-01T18:42:15.090Z,76.56
2023-12-01T18:44:43.038Z,76.45
2023-12-01T18:47:10.190Z,76.51
2023-12-01T18:49:37.080Z,76.71
2023-12-01T18:52:04.094Z,76.85
2023-12-01T18:54:31.008Z,76.86
2023-12-01T18:56:57.919Z,76.91
2023-12-01T18:59:24.952Z,77.35
2023-12-01T19:01:52.006Z,77.26
2023-12-01T19:04:19.078Z,77.04
2023-12-01T19:06:45.956Z,77.42
2023-12-01T19:09:12.879Z,77.50
2023-12-01T19:11:41.194Z,77.78
2023-12-01T19:14:09.535Z,77.44
2023-12-01T19:16:36.462Z,77.74
2023-12-01T19:19:03.486Z,77.68
2023-12-01T19:21:30.441Z,77.82
2023-12-01T19:23:57.341Z,77.53
2023-12-01T19:26:24.573Z,77.27
2023-12-01T19:28:51.811Z,77.61
2023-12-01T19:31:18.736Z,77.98
2023-12-01T19:33:45.687Z,77.74
2023-12-01T19:36:14.075Z,77.57
2023-12-01T19:38:41.276Z,77.33
2023-12-01T19:41:08.527Z,77.48
2023-12-01T19:43:35.374Z,77.58
2023-12-01T19:46:05.261Z,77.40
2023-12-01T19:48:32.346Z,77.61
2023-12-01T19:50:59.487Z,77.79
2023-12-01T19:53:26.763Z,77.66
2023-12-01T19:55:55.942Z,77.72
2023-12-01T19:58:23.339Z,77.70
2023-12-01T20:00:50.218Z,77.80
2023-12-01T20:03:17.266Z,77.86
2023-12-01T20:05:45.359Z,77.63
2023-12-01T20:08:12.274Z,77.61
2023-12-01T20:10:40.253Z,78.04
2023-12-01T20:13:07.239Z,77.76
2023-12-01T20:15:34.386Z,77.83
2023-12-01T20:18:02.426Z,77.63
2023-12-01T20:20:29.564Z,77.85
2023-12-01T20:22:57.248Z,77.87
2023-12-01T20:25:24.420Z,78.01
2023-12-01T20:27:51.296Z,78.14
2023-12-01T20:30:18.316Z,78.15
2023-12-01T20:32:45.346Z,78.14
2023-12-01T20:35:12.369Z,77.78
2023-12-01T20:37:39.941Z,77.88
2023-12-01T20:40:07.491Z,77.53
2023-12-01T20:42:36.359Z,77.43
2023-12-01T20:45:03.597Z,77.55
2023-12-01T20:47:30.581Z,77.59
2023-12-01T20:49:57.626Z,77.61
2023-12-01T20:52:24.731Z,77.54
2023-12-01T20:54:51.622Z,77.47
2023-12-01T20:57:18.593Z,77.30
2023-12-01T20:59:45.526Z,77.59
2023-12-01T21:02:12.820Z,77.56
2023-12-01T21:04:39.746Z,77.74
2023-12-01T21:07:06.822Z,77.48
2023-12-01T21:09:33.752Z,77.68
2023-12-01T21:12:00.966Z,77.56
2023-12-01T21:14:27.859Z,77.84
2023-12-01T21:16:55.185Z,77.55
2023-12-01T21:19:22.127Z,77.77
2023-12-01T21:21:49.186Z,77.74
2023-12-01T21:24:16.164Z,77.70
2023-12-01T21:26:43.136Z,77.66
2023-12-01T21:29:09.963Z,77.57
2023-12-01T21:31:36.863Z,77.52
2023-12-01T21:34:04.041Z,77.57
2023-12-01T21:36:30.959Z,77.69
2023-12-01T21:38:57.907Z,77.56
2023-12-01T21:41:25.184Z,77.57
2023-12-01T21:43:52.569Z,77.70
2023-12-01T21:46:19.368Z,77.62
2023-12-01T21:48:46.470Z,77.35
2023-12-01T21:51:13.729Z,77.70
2023-12-01T21:53:41.201Z,77.65
2023-12-01T21:56:08.744Z,77.74
2023-12-01T21:58:35.610Z,77.79
2023-12-01T22:01:02.491Z,78.02
2023-12-01T22:03:29.443Z,78.06
2023-12-01T22:05:57.019Z,77.76
2023-12-01T22:08:24.448Z,77.64
2023-12-01T22:10:51.305Z,78.08
2023-12-01T22:13:18.129Z,77.63
2023-12-01T22:15:45.806Z,77.66
2023-12-01T22:18:12.915Z,77.81
2023-12-01T22:20:39.928Z,78.02
2023-12-01T22:23:06.816Z,77.65
2023-12-01T22:25:33.652Z,77.69
2023-12-01T22:28:00.571Z,77.62
2023-12-01T22:30:27.462Z,77.80
2023-12-01T22:32:56.110Z,77.82
2023-12-01T22:35:23.024Z,77.74
2023-12-01T22:37:51.250Z,77.99
2023-12-01T22:40:18.429Z,77.86
2023-12-01T22:42:45.596Z,77.80
2023-12-01T22:45:12.470Z,77.80
2023-12-01T22:47:39.378Z,77.91
2023-12-01T22:50:07.634Z,77.78
2023-12-01T22:52:34.708Z,77.77
2023-12-01T22:55:01.643Z,77.87
2023-12-01T22:57:28.580Z,78.00
2023-12-01T22:59:55.482Z,78.12
2023-12-01T23:02:22.460Z,78.38
2023-12-01T23:04:49.722Z,78.51
2023-12-01T23:07:16.669Z,78.53
2023-12-01T23:09:43.526Z,78.43
2023-12-01T23:12:10.692Z,78.18
2023-12-01T23:14:37.580Z,78.26
2023-12-01T23:17:04.578Z,78.21
2023-12-01T23:19:31.467Z,78.41
2023-12-01T23:21:58.550Z,78.54
2023-12-01T23:24:25.522Z,78.16
2023-12-01T23:26:52.465Z,78.10
2023-12-01T23:29:19.364Z,77.95
2023-12-01T23:31:46.369Z,78.21
2023-12-01T23:34:13.288Z,77.71
2023-12-01T23:36:40.136Z,78.03
2023-12-01T23:39:06.993Z,78.16
2023-12-01T23:41:34.211Z,78.48
2023-12-01T23:44:01.077Z,78.35
2023-12-01T23:46:27.887Z,78.42
2023-12-01T23:48:54.913Z,78.49
2023-12-01T23:51:22.508Z,78.39
2023-12-01T23:53:49.568Z,78.19
2023-12-01T23:56:16.424Z,78.31
2023-12-01T23:58:43.311Z,78.55
